Aviation Digital Data Service (ADDS)

Output produced by METARs form (0955 UTC 26 May 2019)
found at http://www.aviationweather.gov/metar/data/
 
KEWR 260737Z 2608/2712 22008KT P6SM BKN020 OVC040 
     FM261300 27009KT P6SM SCT015 SCT050 
     FM261600 29013G20KT P6SM FEW050 SCT250 
     FM262300 30011KT P6SM SCT060 BKN200 
     FM270200 34008KT P6SM SCT060 BKN150 
     FM270600 36006KT P6SM SCT060 BKN150